sensor_id;sensor_type;location;lat;lon;timestamp;P1;durP1;ratioP1;P2;durP2;ratioP2
60730;SDS011;46580;52.114;11.674;2022-07-29T00:02:23;1.33;;;0.70;;
60730;SDS011;46580;52.114;11.674;2022-07-29T00:04:51;1.33;;;0.80;;
60730;SDS011;46580;52.114;11.674;2022-07-29T00:07:24;1.90;;;0.73;;
60730;SDS011;46580;52.114;11.674;2022-07-29T00:09:57;1.93;;;0.70;;
60730;SDS011;46580;52.114;11.674;2022-07-29T00:12:25;3.03;;;0.90;;
60730;SDS011;46580;52.114;11.674;2022-07-29T00:14:54;3.90;;;0.80;;
60730;SDS011;46580;52.114;11.674;2022-07-29T00:17:20;4.47;;;1.00;;
60730;SDS011;46580;52.114;11.674;2022-07-29T00:19:45;1.20;;;0.70;;
60730;SDS011;46580;52.114;11.674;2022-07-29T00:22:20;2.27;;;0.90;;
60730;SDS011;46580;52.114;11.674;2022-07-29T00:24:52;4.80;;;0.90;;
60730;SDS011;46580;52.114;11.674;2022-07-29T00:27:17;4.37;;;1.07;;
60730;SDS011;46580;52.114;11.674;2022-07-29T00:29:43;1.73;;;0.63;;
60730;SDS011;46580;52.114;11.674;2022-07-29T00:32:10;2.03;;;1.00;;
60730;SDS011;46580;52.114;11.674;2022-07-29T00:34:36;3.67;;;1.20;;
60730;SDS011;46580;52.114;11.674;2022-07-29T00:37:20;1.37;;;0.60;;
60730;SDS011;46580;52.114;11.674;2022-07-29T00:39:45;2.30;;;0.90;;
60730;SDS011;46580;52.114;11.674;2022-07-29T00:42:18;6.27;;;0.90;;
60730;SDS011;46580;52.114;11.674;2022-07-29T00:44:44;1.37;;;0.70;;
60730;SDS011;46580;52.114;11.674;2022-07-29T00:47:19;5.57;;;1.23;;
60730;SDS011;46580;52.114;11.674;2022-07-29T00:49:54;2.73;;;0.90;;
60730;SDS011;46580;52.114;11.674;2022-07-29T00:52:27;2.17;;;0.87;;
60730;SDS011;46580;52.114;11.674;2022-07-29T00:54:52;3.77;;;1.03;;
60730;SDS011;46580;52.114;11.674;2022-07-29T00:57:20;3.17;;;1.03;;
60730;SDS011;46580;52.114;11.674;2022-07-29T00:59:54;1.77;;;1.00;;
60730;SDS011;46580;52.114;11.674;2022-07-29T01:02:22;2.40;;;0.90;;
60730;SDS011;46580;52.114;11.674;2022-07-29T01:05:02;2.80;;;0.90;;
60730;SDS011;46580;52.114;11.674;2022-07-29T01:07:34;3.33;;;1.00;;
60730;SDS011;46580;52.114;11.674;2022-07-29T01:10:03;5.53;;;0.90;;
60730;SDS011;46580;52.114;11.674;2022-07-29T01:12:29;3.20;;;1.00;;
60730;SDS011;46580;52.114;11.674;2022-07-29T01:15:07;2.47;;;0.90;;
60730;SDS011;46580;52.114;11.674;2022-07-29T01:17:36;3.87;;;0.80;;
60730;SDS011;46580;52.114;11.674;2022-07-29T01:22:54;4.33;;;0.90;;
60730;SDS011;46580;52.114;11.674;2022-07-29T01:30:58;3.43;;;1.20;;
60730;SDS011;46580;52.114;11.674;2022-07-29T01:33:25;3.33;;;1.13;;
60730;SDS011;46580;52.114;11.674;2022-07-29T01:36:11;1.83;;;1.10;;
60730;SDS011;46580;52.114;11.674;2022-07-29T01:38:41;2.20;;;1.00;;
60730;SDS011;46580;52.114;11.674;2022-07-29T01:41:19;2.47;;;1.00;;
60730;SDS011;46580;52.114;11.674;2022-07-29T01:43:51;2.93;;;1.00;;
60730;SDS011;46580;52.114;11.674;2022-07-29T01:46:25;2.87;;;0.87;;
60730;SDS011;46580;52.114;11.674;2022-07-29T01:49:08;2.77;;;1.23;;
60730;SDS011;46580;52.114;11.674;2022-07-29T01:51:40;1.70;;;0.97;;
60730;SDS011;46580;52.114;11.674;2022-07-29T01:57:11;3.87;;;1.30;;
60730;SDS011;46580;52.114;11.674;2022-07-29T01:59:39;1.77;;;0.83;;
60730;SDS011;46580;52.114;11.674;2022-07-29T02:02:06;2.70;;;1.27;;
60730;SDS011;46580;52.114;11.674;2022-07-29T02:04:41;3.03;;;0.93;;
60730;SDS011;46580;52.114;11.674;2022-07-29T02:07:10;3.03;;;1.33;;
60730;SDS011;46580;52.114;11.674;2022-07-29T02:09:48;3.03;;;1.13;;
60730;SDS011;46580;52.114;11.674;2022-07-29T02:12:17;5.20;;;1.30;;
60730;SDS011;46580;52.114;11.674;2022-07-29T02:14:47;8.30;;;1.53;;
60730;SDS011;46580;52.114;11.674;2022-07-29T02:17:16;5.23;;;1.43;;
60730;SDS011;46580;52.114;11.674;2022-07-29T02:19:52;4.53;;;1.17;;
60730;SDS011;46580;52.114;11.674;2022-07-29T02:22:24;3.73;;;1.10;;
60730;SDS011;46580;52.114;11.674;2022-07-29T02:24:53;3.47;;;1.30;;
60730;SDS011;46580;52.114;11.674;2022-07-29T02:27:19;3.10;;;1.17;;
60730;SDS011;46580;52.114;11.674;2022-07-29T02:29:56;4.17;;;1.73;;
60730;SDS011;46580;52.114;11.674;2022-07-29T02:32:23;1.60;;;1.03;;
60730;SDS011;46580;52.114;11.674;2022-07-29T02:34:58;5.33;;;1.23;;
60730;SDS011;46580;52.114;11.674;2022-07-29T02:37:27;3.03;;;1.33;;
60730;SDS011;46580;52.114;11.674;2022-07-29T02:40:07;5.30;;;1.20;;
60730;SDS011;46580;52.114;11.674;2022-07-29T02:42:36;5.00;;;1.50;;
60730;SDS011;46580;52.114;11.674;2022-07-29T02:45:03;2.50;;;1.40;;
60730;SDS011;46580;52.114;11.674;2022-07-29T02:47:47;5.27;;;1.50;;
60730;SDS011;46580;52.114;11.674;2022-07-29T02:50:43;5.10;;;1.40;;
60730;SDS011;46580;52.114;11.674;2022-07-29T02:53:26;2.70;;;1.50;;
60730;SDS011;46580;52.114;11.674;2022-07-29T02:55:57;3.00;;;1.00;;
60730;SDS011;46580;52.114;11.674;2022-07-29T03:01:31;2.73;;;1.43;;
60730;SDS011;46580;52.114;11.674;2022-07-29T03:04:04;4.00;;;1.43;;
60730;SDS011;46580;52.114;11.674;2022-07-29T03:06:32;6.87;;;1.50;;
60730;SDS011;46580;52.114;11.674;2022-07-29T03:08:59;4.47;;;1.30;;
60730;SDS011;46580;52.114;11.674;2022-07-29T03:11:27;2.30;;;1.60;;
60730;SDS011;46580;52.114;11.674;2022-07-29T03:14:04;2.33;;;1.33;;
60730;SDS011;46580;52.114;11.674;2022-07-29T03:16:30;3.47;;;1.50;;
60730;SDS011;46580;52.114;11.674;2022-07-29T03:19:03;2.10;;;1.50;;
60730;SDS011;46580;52.114;11.674;2022-07-29T03:21:29;5.47;;;1.87;;
60730;SDS011;46580;52.114;11.674;2022-07-29T03:24:06;3.37;;;1.93;;
60730;SDS011;46580;52.114;11.674;2022-07-29T03:26:54;3.33;;;1.90;;
60730;SDS011;46580;52.114;11.674;2022-07-29T03:29:32;3.30;;;1.47;;
60730;SDS011;46580;52.114;11.674;2022-07-29T03:31:58;3.83;;;1.90;;
60730;SDS011;46580;52.114;11.674;2022-07-29T03:34:24;3.53;;;1.80;;
60730;SDS011;46580;52.114;11.674;2022-07-29T03:36:59;3.73;;;1.60;;
60730;SDS011;46580;52.114;11.674;2022-07-29T03:39:27;2.60;;;1.40;;
60730;SDS011;46580;52.114;11.674;2022-07-29T03:42:06;8.47;;;1.90;;
60730;SDS011;46580;52.114;11.674;2022-07-29T03:44:33;3.87;;;1.83;;
60730;SDS011;46580;52.114;11.674;2022-07-29T03:46:59;3.73;;;1.67;;
60730;SDS011;46580;52.114;11.674;2022-07-29T03:49:32;3.60;;;1.67;;
60730;SDS011;46580;52.114;11.674;2022-07-29T03:52:04;6.37;;;2.00;;
60730;SDS011;46580;52.114;11.674;2022-07-29T03:54:44;2.90;;;1.53;;
60730;SDS011;46580;52.114;11.674;2022-07-29T03:57:10;6.07;;;2.00;;
60730;SDS011;46580;52.114;11.674;2022-07-29T03:59:47;3.20;;;1.87;;
60730;SDS011;46580;52.114;11.674;2022-07-29T04:02:15;2.70;;;1.90;;
60730;SDS011;46580;52.114;11.674;2022-07-29T04:04:41;6.10;;;2.13;;
60730;SDS011;46580;52.114;11.674;2022-07-29T04:07:14;6.20;;;2.20;;
60730;SDS011;46580;52.114;11.674;2022-07-29T04:09:46;7.17;;;2.60;;
60730;SDS011;46580;52.114;11.674;2022-07-29T04:12:14;5.50;;;2.30;;
60730;SDS011;46580;52.114;11.674;2022-07-29T04:14:39;5.87;;;1.80;;
60730;SDS011;46580;52.114;11.674;2022-07-29T04:17:07;4.87;;;1.90;;
60730;SDS011;46580;52.114;11.674;2022-07-29T04:19:33;8.67;;;2.57;;
60730;SDS011;46580;52.114;11.674;2022-07-29T04:22:10;5.47;;;2.03;;
60730;SDS011;46580;52.114;11.674;2022-07-29T04:24:35;5.37;;;2.30;;
60730;SDS011;46580;52.114;11.674;2022-07-29T04:27:00;4.90;;;2.20;;
60730;SDS011;46580;52.114;11.674;2022-07-29T04:29:36;5.40;;;2.30;;
60730;SDS011;46580;52.114;11.674;2022-07-29T04:32:01;4.50;;;2.40;;
60730;SDS011;46580;52.114;11.674;2022-07-29T04:34:48;6.70;;;2.33;;
60730;SDS011;46580;52.114;11.674;2022-07-29T04:37:21;3.60;;;2.33;;
60730;SDS011;46580;52.114;11.674;2022-07-29T04:39:46;6.23;;;2.40;;
60730;SDS011;46580;52.114;11.674;2022-07-29T04:42:15;5.83;;;2.70;;
60730;SDS011;46580;52.114;11.674;2022-07-29T04:44:49;7.07;;;2.23;;
60730;SDS011;46580;52.114;11.674;2022-07-29T04:47:25;3.10;;;2.10;;
60730;SDS011;46580;52.114;11.674;2022-07-29T04:49:50;7.10;;;2.27;;
60730;SDS011;46580;52.114;11.674;2022-07-29T04:52:26;4.03;;;2.10;;
60730;SDS011;46580;52.114;11.674;2022-07-29T04:55:00;5.97;;;2.33;;
60730;SDS011;46580;52.114;11.674;2022-07-29T04:57:28;6.63;;;2.60;;
60730;SDS011;46580;52.114;11.674;2022-07-29T04:59:53;4.97;;;2.53;;
60730;SDS011;46580;52.114;11.674;2022-07-29T05:02:21;4.37;;;2.33;;
60730;SDS011;46580;52.114;11.674;2022-07-29T05:04:47;6.87;;;2.47;;
60730;SDS011;46580;52.114;11.674;2022-07-29T05:07:15;7.70;;;2.57;;
60730;SDS011;46580;52.114;11.674;2022-07-29T05:09:45;4.00;;;1.87;;
60730;SDS011;46580;52.114;11.674;2022-07-29T05:12:21;4.77;;;2.50;;
60730;SDS011;46580;52.114;11.674;2022-07-29T05:14:46;5.50;;;2.63;;
60730;SDS011;46580;52.114;11.674;2022-07-29T05:17:14;7.73;;;2.43;;
60730;SDS011;46580;52.114;11.674;2022-07-29T05:19:40;6.23;;;1.83;;
60730;SDS011;46580;52.114;11.674;2022-07-29T05:22:05;5.10;;;3.40;;
60730;SDS011;46580;52.114;11.674;2022-07-29T05:24:33;8.97;;;2.30;;
60730;SDS011;46580;52.114;11.674;2022-07-29T05:26:59;6.90;;;2.50;;
60730;SDS011;46580;52.114;11.674;2022-07-29T05:29:35;3.80;;;2.47;;
60730;SDS011;46580;52.114;11.674;2022-07-29T05:32:01;5.67;;;2.50;;
60730;SDS011;46580;52.114;11.674;2022-07-29T05:34:27;7.87;;;2.90;;
60730;SDS011;46580;52.114;11.674;2022-07-29T05:36:52;6.00;;;2.40;;
60730;SDS011;46580;52.114;11.674;2022-07-29T05:39:20;5.13;;;2.30;;
60730;SDS011;46580;52.114;11.674;2022-07-29T05:41:53;5.93;;;2.67;;
60730;SDS011;46580;52.114;11.674;2022-07-29T05:44:19;6.40;;;2.40;;
60730;SDS011;46580;52.114;11.674;2022-07-29T05:46:44;3.73;;;2.43;;
60730;SDS011;46580;52.114;11.674;2022-07-29T05:49:14;7.40;;;2.60;;
60730;SDS011;46580;52.114;11.674;2022-07-29T05:51:42;5.37;;;2.43;;
60730;SDS011;46580;52.114;11.674;2022-07-29T05:54:08;7.97;;;2.60;;
60730;SDS011;46580;52.114;11.674;2022-07-29T05:56:43;5.87;;;2.40;;
60730;SDS011;46580;52.114;11.674;2022-07-29T05:59:12;7.53;;;2.50;;
60730;SDS011;46580;52.114;11.674;2022-07-29T06:01:37;4.57;;;2.70;;
60730;SDS011;46580;52.114;11.674;2022-07-29T06:04:04;7.87;;;2.77;;
60730;SDS011;46580;52.114;11.674;2022-07-29T06:06:35;12.37;;;2.97;;
60730;SDS011;46580;52.114;11.674;2022-07-29T06:09:01;4.77;;;2.60;;
60730;SDS011;46580;52.114;11.674;2022-07-29T06:11:27;5.40;;;2.70;;
60730;SDS011;46580;52.114;11.674;2022-07-29T06:13:52;9.67;;;2.70;;
60730;SDS011;46580;52.114;11.674;2022-07-29T06:16:18;7.40;;;2.03;;
60730;SDS011;46580;52.114;11.674;2022-07-29T06:18:51;5.90;;;2.77;;
60730;SDS011;46580;52.114;11.674;2022-07-29T06:21:17;5.03;;;2.60;;
60730;SDS011;46580;52.114;11.674;2022-07-29T06:23:45;7.90;;;2.43;;
60730;SDS011;46580;52.114;11.674;2022-07-29T06:26:10;9.80;;;2.67;;
60730;SDS011;46580;52.114;11.674;2022-07-29T06:28:45;5.40;;;2.17;;
60730;SDS011;46580;52.114;11.674;2022-07-29T06:31:10;5.40;;;3.10;;
60730;SDS011;46580;52.114;11.674;2022-07-29T06:33:36;8.20;;;2.83;;
60730;SDS011;46580;52.114;11.674;2022-07-29T06:36:03;9.47;;;2.50;;
60730;SDS011;46580;52.114;11.674;2022-07-29T06:38:37;6.00;;;2.60;;
60730;SDS011;46580;52.114;11.674;2022-07-29T06:41:03;6.70;;;2.73;;
60730;SDS011;46580;52.114;11.674;2022-07-29T06:43:37;6.80;;;2.43;;
60730;SDS011;46580;52.114;11.674;2022-07-29T06:46:13;6.90;;;2.90;;
60730;SDS011;46580;52.114;11.674;2022-07-29T06:48:47;6.37;;;2.37;;
60730;SDS011;46580;52.114;11.674;2022-07-29T06:51:13;6.50;;;2.77;;
60730;SDS011;46580;52.114;11.674;2022-07-29T06:53:46;6.93;;;2.50;;
60730;SDS011;46580;52.114;11.674;2022-07-29T06:56:11;4.00;;;2.17;;
60730;SDS011;46580;52.114;11.674;2022-07-29T06:58:38;5.33;;;2.10;;
60730;SDS011;46580;52.114;11.674;2022-07-29T07:01:06;6.03;;;2.73;;
60730;SDS011;46580;52.114;11.674;2022-07-29T07:03:32;6.30;;;2.90;;
60730;SDS011;46580;52.114;11.674;2022-07-29T07:06:00;3.87;;;2.43;;
60730;SDS011;46580;52.114;11.674;2022-07-29T07:08:28;5.17;;;2.33;;
60730;SDS011;46580;52.114;11.674;2022-07-29T07:10:58;7.37;;;2.67;;
60730;SDS011;46580;52.114;11.674;2022-07-29T07:13:27;10.27;;;2.77;;
60730;SDS011;46580;52.114;11.674;2022-07-29T07:15:56;6.50;;;2.60;;
60730;SDS011;46580;52.114;11.674;2022-07-29T07:18:24;10.43;;;2.70;;
60730;SDS011;46580;52.114;11.674;2022-07-29T07:20:49;6.13;;;2.80;;
60730;SDS011;46580;52.114;11.674;2022-07-29T07:23:14;4.70;;;2.30;;
60730;SDS011;46580;52.114;11.674;2022-07-29T07:25:40;9.53;;;2.90;;
60730;SDS011;46580;52.114;11.674;2022-07-29T07:28:23;6.43;;;2.90;;
60730;SDS011;46580;52.114;11.674;2022-07-29T07:30:48;6.53;;;2.70;;
60730;SDS011;46580;52.114;11.674;2022-07-29T07:33:14;5.17;;;2.70;;
60730;SDS011;46580;52.114;11.674;2022-07-29T07:35:40;4.37;;;2.27;;
60730;SDS011;46580;52.114;11.674;2022-07-29T07:38:06;5.93;;;2.30;;
60730;SDS011;46580;52.114;11.674;2022-07-29T07:40:31;4.27;;;2.40;;
60730;SDS011;46580;52.114;11.674;2022-07-29T07:42:57;3.90;;;2.10;;
60730;SDS011;46580;52.114;11.674;2022-07-29T07:45:24;5.67;;;3.10;;
60730;SDS011;46580;52.114;11.674;2022-07-29T07:47:50;11.53;;;3.20;;
60730;SDS011;46580;52.114;11.674;2022-07-29T07:50:18;9.70;;;2.70;;
60730;SDS011;46580;52.114;11.674;2022-07-29T07:52:53;8.23;;;2.40;;
60730;SDS011;46580;52.114;11.674;2022-07-29T07:55:22;4.50;;;2.70;;
60730;SDS011;46580;52.114;11.674;2022-07-29T07:57:48;10.57;;;2.80;;
60730;SDS011;46580;52.114;11.674;2022-07-29T08:00:14;5.17;;;2.27;;
60730;SDS011;46580;52.114;11.674;2022-07-29T08:02:40;8.10;;;3.63;;
60730;SDS011;46580;52.114;11.674;2022-07-29T08:05:07;5.70;;;2.90;;
60730;SDS011;46580;52.114;11.674;2022-07-29T08:07:33;8.73;;;2.53;;
60730;SDS011;46580;52.114;11.674;2022-07-29T08:09:58;10.37;;;3.13;;
60730;SDS011;46580;52.114;11.674;2022-07-29T08:12:23;6.37;;;2.40;;
60730;SDS011;46580;52.114;11.674;2022-07-29T08:14:49;3.90;;;2.40;;
60730;SDS011;46580;52.114;11.674;2022-07-29T08:17:14;9.07;;;2.30;;
60730;SDS011;46580;52.114;11.674;2022-07-29T08:19:39;6.00;;;2.27;;
60730;SDS011;46580;52.114;11.674;2022-07-29T08:22:05;6.47;;;2.43;;
60730;SDS011;46580;52.114;11.674;2022-07-29T08:24:30;7.77;;;2.50;;
60730;SDS011;46580;52.114;11.674;2022-07-29T08:27:08;10.20;;;2.90;;
60730;SDS011;46580;52.114;11.674;2022-07-29T08:29:37;7.67;;;2.70;;
60730;SDS011;46580;52.114;11.674;2022-07-29T08:32:02;7.87;;;2.47;;
60730;SDS011;46580;52.114;11.674;2022-07-29T08:34:28;5.17;;;2.83;;
60730;SDS011;46580;52.114;11.674;2022-07-29T08:36:54;6.03;;;2.67;;
60730;SDS011;46580;52.114;11.674;2022-07-29T08:39:21;6.20;;;2.50;;
60730;SDS011;46580;52.114;11.674;2022-07-29T08:41:55;6.67;;;2.70;;
60730;SDS011;46580;52.114;11.674;2022-07-29T08:44:21;4.50;;;2.70;;
60730;SDS011;46580;52.114;11.674;2022-07-29T08:46:47;6.77;;;2.90;;
60730;SDS011;46580;52.114;11.674;2022-07-29T08:49:19;6.27;;;2.33;;
60730;SDS011;46580;52.114;11.674;2022-07-29T08:51:44;7.00;;;2.50;;
60730;SDS011;46580;52.114;11.674;2022-07-29T08:54:10;6.27;;;2.67;;
60730;SDS011;46580;52.114;11.674;2022-07-29T08:56:36;5.23;;;2.27;;
60730;SDS011;46580;52.114;11.674;2022-07-29T08:59:04;9.43;;;3.03;;
60730;SDS011;46580;52.114;11.674;2022-07-29T09:01:33;6.57;;;2.23;;
60730;SDS011;46580;52.114;11.674;2022-07-29T09:04:04;8.53;;;2.93;;
60730;SDS011;46580;52.114;11.674;2022-07-29T09:06:34;9.00;;;2.63;;
60730;SDS011;46580;52.114;11.674;2022-07-29T09:09:02;11.33;;;2.70;;
60730;SDS011;46580;52.114;11.674;2022-07-29T09:11:29;5.33;;;2.60;;
60730;SDS011;46580;52.114;11.674;2022-07-29T09:13:57;9.73;;;2.87;;
60730;SDS011;46580;52.114;11.674;2022-07-29T09:16:22;6.47;;;2.53;;
60730;SDS011;46580;52.114;11.674;2022-07-29T09:18:50;7.30;;;2.60;;
60730;SDS011;46580;52.114;11.674;2022-07-29T09:21:16;6.03;;;2.87;;
60730;SDS011;46580;52.114;11.674;2022-07-29T09:25:01;3.57;;;1.90;;
60730;SDS011;46580;52.114;11.674;2022-07-29T09:26:59;6.20;;;2.63;;
60730;SDS011;46580;52.114;11.674;2022-07-29T09:29:25;5.10;;;2.50;;
60730;SDS011;46580;52.114;11.674;2022-07-29T09:31:52;4.83;;;2.53;;
60730;SDS011;46580;52.114;11.674;2022-07-29T09:34:26;4.43;;;2.40;;
60730;SDS011;46580;52.114;11.674;2022-07-29T09:36:57;6.27;;;2.80;;
60730;SDS011;46580;52.114;11.674;2022-07-29T09:42:10;6.37;;;2.50;;
60730;SDS011;46580;52.114;11.674;2022-07-29T09:47:39;6.50;;;2.60;;
60730;SDS011;46580;52.114;11.674;2022-07-29T09:50:10;4.17;;;2.13;;
60730;SDS011;46580;52.114;11.674;2022-07-29T09:52:44;5.90;;;2.40;;
60730;SDS011;46580;52.114;11.674;2022-07-29T09:55:11;5.93;;;2.10;;
60730;SDS011;46580;52.114;11.674;2022-07-29T09:57:37;8.37;;;2.47;;
60730;SDS011;46580;52.114;11.674;2022-07-29T10:00:07;6.10;;;2.40;;
60730;SDS011;46580;52.114;11.674;2022-07-29T10:02:35;6.77;;;2.17;;
60730;SDS011;46580;52.114;11.674;2022-07-29T10:05:02;4.53;;;2.07;;
60730;SDS011;46580;52.114;11.674;2022-07-29T10:07:43;5.20;;;2.20;;
60730;SDS011;46580;52.114;11.674;2022-07-29T10:10:37;7.70;;;2.03;;
60730;SDS011;46580;52.114;11.674;2022-07-29T10:13:09;6.07;;;1.90;;
60730;SDS011;46580;52.114;11.674;2022-07-29T10:15:40;5.50;;;1.93;;
60730;SDS011;46580;52.114;11.674;2022-07-29T10:18:08;7.83;;;1.80;;
60730;SDS011;46580;52.114;11.674;2022-07-29T10:20:36;4.40;;;1.87;;
60730;SDS011;46580;52.114;11.674;2022-07-29T10:23:19;4.33;;;1.80;;
60730;SDS011;46580;52.114;11.674;2022-07-29T10:25:45;4.17;;;1.67;;
60730;SDS011;46580;52.114;11.674;2022-07-29T10:28:11;5.53;;;1.60;;
60730;SDS011;46580;52.114;11.674;2022-07-29T10:30:36;7.90;;;1.70;;
60730;SDS011;46580;52.114;11.674;2022-07-29T10:38:42;4.33;;;1.60;;
60730;SDS011;46580;52.114;11.674;2022-07-29T10:41:33;6.00;;;1.60;;
60730;SDS011;46580;52.114;11.674;2022-07-29T10:44:23;3.00;;;1.63;;
60730;SDS011;46580;52.114;11.674;2022-07-29T10:46:50;4.77;;;1.50;;
60730;SDS011;46580;52.114;11.674;2022-07-29T10:49:23;6.03;;;1.50;;
60730;SDS011;46580;52.114;11.674;2022-07-29T10:52:02;4.80;;;1.20;;
60730;SDS011;46580;52.114;11.674;2022-07-29T10:54:38;5.73;;;1.60;;
60730;SDS011;46580;52.114;11.674;2022-07-29T10:57:19;4.23;;;1.97;;
60730;SDS011;46580;52.114;11.674;2022-07-29T11:07:22;3.80;;;1.17;;
60730;SDS011;46580;52.114;11.674;2022-07-29T11:15:05;6.87;;;1.80;;
60730;SDS011;46580;52.114;11.674;2022-07-29T11:26:16;5.20;;;1.80;;
60730;SDS011;46580;52.114;11.674;2022-07-29T11:31:37;7.10;;;1.87;;
60730;SDS011;46580;52.114;11.674;2022-07-29T11:47:26;5.47;;;1.80;;
60730;SDS011;46580;52.114;11.674;2022-07-29T11:49:55;6.03;;;2.00;;
60730;SDS011;46580;52.114;11.674;2022-07-29T11:52:22;6.87;;;1.57;;
60730;SDS011;46580;52.114;11.674;2022-07-29T11:54:48;4.73;;;1.43;;
60730;SDS011;46580;52.114;11.674;2022-07-29T11:57:16;3.20;;;1.77;;
60730;SDS011;46580;52.114;11.674;2022-07-29T12:02:43;6.27;;;1.70;;
60730;SDS011;46580;52.114;11.674;2022-07-29T12:06:02;2.50;;;1.57;;
60730;SDS011;46580;52.114;11.674;2022-07-29T12:08:39;5.43;;;1.70;;
60730;SDS011;46580;52.114;11.674;2022-07-29T12:11:14;4.53;;;1.93;;
60730;SDS011;46580;52.114;11.674;2022-07-29T12:13:52;5.03;;;2.07;;
60730;SDS011;46580;52.114;11.674;2022-07-29T12:16:34;6.90;;;1.80;;
60730;SDS011;46580;52.114;11.674;2022-07-29T12:19:06;7.47;;;1.73;;
60730;SDS011;46580;52.114;11.674;2022-07-29T12:24:49;4.60;;;1.70;;
60730;SDS011;46580;52.114;11.674;2022-07-29T12:30:57;4.40;;;1.93;;
60730;SDS011;46580;52.114;11.674;2022-07-29T12:33:25;3.07;;;1.30;;
60730;SDS011;46580;52.114;11.674;2022-07-29T12:35:56;3.20;;;1.40;;
60730;SDS011;46580;52.114;11.674;2022-07-29T12:38:41;6.07;;;1.83;;
60730;SDS011;46580;52.114;11.674;2022-07-29T12:41:34;2.27;;;1.33;;
60730;SDS011;46580;52.114;11.674;2022-07-29T12:44:00;3.40;;;1.70;;
60730;SDS011;46580;52.114;11.674;2022-07-29T12:46:32;4.03;;;1.73;;
60730;SDS011;46580;52.114;11.674;2022-07-29T12:48:57;1.83;;;1.70;;
60730;SDS011;46580;52.114;11.674;2022-07-29T13:00:03;3.10;;;1.70;;
60730;SDS011;46580;52.114;11.674;2022-07-29T13:02:35;4.73;;;1.77;;
60730;SDS011;46580;52.114;11.674;2022-07-29T13:05:06;7.90;;;1.73;;
60730;SDS011;46580;52.114;11.674;2022-07-29T13:07:42;4.63;;;1.70;;
60730;SDS011;46580;52.114;11.674;2022-07-29T13:10:11;3.40;;;1.60;;
60730;SDS011;46580;52.114;11.674;2022-07-29T13:13:13;3.83;;;1.60;;
60730;SDS011;46580;52.114;11.674;2022-07-29T13:15:45;3.87;;;1.33;;
60730;SDS011;46580;52.114;11.674;2022-07-29T13:18:37;4.13;;;1.50;;
60730;SDS011;46580;52.114;11.674;2022-07-29T13:21:19;5.27;;;1.80;;
60730;SDS011;46580;52.114;11.674;2022-07-29T13:27:55;2.13;;;1.60;;
60730;SDS011;46580;52.114;11.674;2022-07-29T13:30:26;3.37;;;1.83;;
60730;SDS011;46580;52.114;11.674;2022-07-29T13:33:00;2.37;;;1.50;;
60730;SDS011;46580;52.114;11.674;2022-07-29T13:35:28;3.93;;;1.53;;
60730;SDS011;46580;52.114;11.674;2022-07-29T13:37:54;6.53;;;1.40;;
60730;SDS011;46580;52.114;11.674;2022-07-29T13:40:20;1.93;;;1.40;;
60730;SDS011;46580;52.114;11.674;2022-07-29T13:42:55;6.67;;;1.60;;
60730;SDS011;46580;52.114;11.674;2022-07-29T13:51:19;3.37;;;1.63;;
60730;SDS011;46580;52.114;11.674;2022-07-29T13:53:45;3.90;;;1.80;;
60730;SDS011;46580;52.114;11.674;2022-07-29T13:56:23;3.80;;;1.50;;
60730;SDS011;46580;52.114;11.674;2022-07-29T13:58:51;2.73;;;1.50;;
60730;SDS011;46580;52.114;11.674;2022-07-29T14:01:24;2.53;;;1.43;;
60730;SDS011;46580;52.114;11.674;2022-07-29T14:03:55;4.97;;;1.40;;
60730;SDS011;46580;52.114;11.674;2022-07-29T14:06:20;3.30;;;1.30;;
60730;SDS011;46580;52.114;11.674;2022-07-29T14:08:48;4.20;;;1.57;;
60730;SDS011;46580;52.114;11.674;2022-07-29T14:11:16;3.70;;;1.50;;
60730;SDS011;46580;52.114;11.674;2022-07-29T14:13:49;2.27;;;1.53;;
60730;SDS011;46580;52.114;11.674;2022-07-29T14:16:14;3.50;;;1.63;;
60730;SDS011;46580;52.114;11.674;2022-07-29T14:18:43;2.70;;;1.77;;
60730;SDS011;46580;52.114;11.674;2022-07-29T14:21:08;4.37;;;1.67;;
60730;SDS011;46580;52.114;11.674;2022-07-29T14:23:36;4.30;;;1.30;;
60730;SDS011;46580;52.114;11.674;2022-07-29T14:26:02;2.27;;;1.50;;
60730;SDS011;46580;52.114;11.674;2022-07-29T14:28:32;3.73;;;1.50;;
60730;SDS011;46580;52.114;11.674;2022-07-29T14:30:58;2.47;;;1.50;;
60730;SDS011;46580;52.114;11.674;2022-07-29T14:33:32;3.30;;;1.20;;
60730;SDS011;46580;52.114;11.674;2022-07-29T14:35:58;3.30;;;1.50;;
60730;SDS011;46580;52.114;11.674;2022-07-29T14:38:24;8.43;;;1.60;;
60730;SDS011;46580;52.114;11.674;2022-07-29T14:40:49;4.57;;;1.63;;
60730;SDS011;46580;52.114;11.674;2022-07-29T14:43:15;4.33;;;1.63;;
60730;SDS011;46580;52.114;11.674;2022-07-29T14:45:45;5.30;;;2.13;;
60730;SDS011;46580;52.114;11.674;2022-07-29T14:48:13;4.63;;;1.97;;
60730;SDS011;46580;52.114;11.674;2022-07-29T14:50:41;2.63;;;1.60;;
60730;SDS011;46580;52.114;11.674;2022-07-29T14:53:09;2.77;;;1.60;;
60730;SDS011;46580;52.114;11.674;2022-07-29T14:55:40;4.93;;;1.23;;
60730;SDS011;46580;52.114;11.674;2022-07-29T14:58:07;3.90;;;2.00;;
60730;SDS011;46580;52.114;11.674;2022-07-29T15:00:35;5.90;;;2.00;;
60730;SDS011;46580;52.114;11.674;2022-07-29T15:03:03;6.20;;;1.70;;
60730;SDS011;46580;52.114;11.674;2022-07-29T15:05:30;3.97;;;1.47;;
60730;SDS011;46580;52.114;11.674;2022-07-29T15:07:59;3.13;;;1.60;;
60730;SDS011;46580;52.114;11.674;2022-07-29T15:10:27;3.93;;;1.70;;
60730;SDS011;46580;52.114;11.674;2022-07-29T15:12:55;1.80;;;1.13;;
60730;SDS011;46580;52.114;11.674;2022-07-29T15:15:23;4.17;;;1.57;;
60730;SDS011;46580;52.114;11.674;2022-07-29T15:17:51;3.70;;;1.50;;
60730;SDS011;46580;52.114;11.674;2022-07-29T15:20:30;2.30;;;1.53;;
60730;SDS011;46580;52.114;11.674;2022-07-29T15:26:04;3.30;;;1.60;;
60730;SDS011;46580;52.114;11.674;2022-07-29T15:28:32;6.10;;;1.80;;
60730;SDS011;46580;52.114;11.674;2022-07-29T15:31:09;5.47;;;1.87;;
60730;SDS011;46580;52.114;11.674;2022-07-29T15:33:37;3.37;;;1.60;;
60730;SDS011;46580;52.114;11.674;2022-07-29T15:36:11;6.33;;;1.80;;
60730;SDS011;46580;52.114;11.674;2022-07-29T15:38:39;2.93;;;1.70;;
60730;SDS011;46580;52.114;11.674;2022-07-29T15:41:07;2.60;;;2.10;;
60730;SDS011;46580;52.114;11.674;2022-07-29T15:43:35;3.87;;;1.80;;
60730;SDS011;46580;52.114;11.674;2022-07-29T15:46:01;4.40;;;1.67;;
60730;SDS011;46580;52.114;11.674;2022-07-29T15:48:51;3.03;;;1.80;;
60730;SDS011;46580;52.114;11.674;2022-07-29T15:51:16;3.43;;;1.80;;
60730;SDS011;46580;52.114;11.674;2022-07-29T15:53:48;3.50;;;1.80;;
60730;SDS011;46580;52.114;11.674;2022-07-29T15:56:21;4.30;;;2.43;;
60730;SDS011;46580;52.114;11.674;2022-07-29T15:58:49;3.03;;;1.63;;
60730;SDS011;46580;52.114;11.674;2022-07-29T16:01:14;5.10;;;2.00;;
60730;SDS011;46580;52.114;11.674;2022-07-29T16:03:40;5.77;;;2.00;;
60730;SDS011;46580;52.114;11.674;2022-07-29T16:06:08;3.30;;;2.10;;
60730;SDS011;46580;52.114;11.674;2022-07-29T16:08:49;4.50;;;2.10;;
60730;SDS011;46580;52.114;11.674;2022-07-29T16:11:20;5.10;;;2.03;;
60730;SDS011;46580;52.114;11.674;2022-07-29T16:13:51;1.87;;;1.77;;
60730;SDS011;46580;52.114;11.674;2022-07-29T16:16:16;5.23;;;2.80;;
60730;SDS011;46580;52.114;11.674;2022-07-29T16:18:44;3.53;;;2.37;;
60730;SDS011;46580;52.114;11.674;2022-07-29T16:21:17;2.50;;;1.80;;
60730;SDS011;46580;52.114;11.674;2022-07-29T16:23:46;3.67;;;2.30;;
60730;SDS011;46580;52.114;11.674;2022-07-29T16:26:14;7.40;;;1.90;;
60730;SDS011;46580;52.114;11.674;2022-07-29T16:28:49;9.90;;;2.00;;